sensor_id;sensor_type;location;lat;lon;timestamp;P1;durP1;ratioP1;P2;durP2;ratioP2
23404;SDS011;11875;49.356;2.718;2023-07-20T00:01:03;4.03;;;1.75;;
23404;SDS011;11875;49.356;2.718;2023-07-20T00:03:29;4.43;;;1.77;;
23404;SDS011;11875;49.356;2.718;2023-07-20T00:05:54;3.67;;;1.88;;
23404;SDS011;11875;49.356;2.718;2023-07-20T00:08:20;5.65;;;2.00;;
23404;SDS011;11875;49.356;2.718;2023-07-20T00:10:46;6.10;;;1.73;;
23404;SDS011;11875;49.356;2.718;2023-07-20T00:13:11;10.60;;;1.77;;
23404;SDS011;11875;49.356;2.718;2023-07-20T00:15:38;5.90;;;1.90;;
23404;SDS011;11875;49.356;2.718;2023-07-20T00:18:04;3.78;;;1.77;;
23404;SDS011;11875;49.356;2.718;2023-07-20T00:20:30;4.63;;;1.95;;
23404;SDS011;11875;49.356;2.718;2023-07-20T00:22:56;5.78;;;1.70;;
23404;SDS011;11875;49.356;2.718;2023-07-20T00:25:23;9.70;;;1.80;;
23404;SDS011;11875;49.356;2.718;2023-07-20T00:27:49;4.82;;;2.17;;
23404;SDS011;11875;49.356;2.718;2023-07-20T00:30:15;4.28;;;1.63;;
23404;SDS011;11875;49.356;2.718;2023-07-20T00:32:41;8.68;;;1.90;;
23404;SDS011;11875;49.356;2.718;2023-07-20T00:35:08;3.83;;;1.60;;
23404;SDS011;11875;49.356;2.718;2023-07-20T00:37:33;5.05;;;2.00;;
23404;SDS011;11875;49.356;2.718;2023-07-20T00:39:59;6.20;;;2.00;;
23404;SDS011;11875;49.356;2.718;2023-07-20T00:42:24;3.65;;;1.67;;
23404;SDS011;11875;49.356;2.718;2023-07-20T00:44:50;3.13;;;1.73;;
23404;SDS011;11875;49.356;2.718;2023-07-20T00:47:16;5.03;;;1.77;;
23404;SDS011;11875;49.356;2.718;2023-07-20T00:49:41;6.75;;;1.70;;
23404;SDS011;11875;49.356;2.718;2023-07-20T00:52:08;2.65;;;1.70;;
23404;SDS011;11875;49.356;2.718;2023-07-20T00:54:38;4.50;;;2.15;;
23404;SDS011;11875;49.356;2.718;2023-07-20T00:57:04;4.13;;;1.73;;
23404;SDS011;11875;49.356;2.718;2023-07-20T00:59:32;6.95;;;1.85;;
23404;SDS011;11875;49.356;2.718;2023-07-20T01:01:58;7.95;;;1.90;;
23404;SDS011;11875;49.356;2.718;2023-07-20T01:04:23;6.30;;;2.05;;
23404;SDS011;11875;49.356;2.718;2023-07-20T01:12:13;4.20;;;2.10;;
23404;SDS011;11875;49.356;2.718;2023-07-20T01:14:48;2.38;;;1.75;;
23404;SDS011;11875;49.356;2.718;2023-07-20T01:17:14;3.35;;;1.85;;
23404;SDS011;11875;49.356;2.718;2023-07-20T01:19:39;3.55;;;2.13;;
23404;SDS011;11875;49.356;2.718;2023-07-20T01:32:26;3.30;;;1.65;;
23404;SDS011;11875;49.356;2.718;2023-07-20T01:34:54;5.85;;;1.98;;
23404;SDS011;11875;49.356;2.718;2023-07-20T01:37:21;3.92;;;2.08;;
23404;SDS011;11875;49.356;2.718;2023-07-20T01:39:52;3.90;;;2.00;;
23404;SDS011;11875;49.356;2.718;2023-07-20T01:42:20;7.28;;;2.15;;
23404;SDS011;11875;49.356;2.718;2023-07-20T01:44:48;5.63;;;2.00;;
23404;SDS011;11875;49.356;2.718;2023-07-20T01:47:15;8.23;;;1.85;;
23404;SDS011;11875;49.356;2.718;2023-07-20T01:49:40;4.65;;;1.90;;
23404;SDS011;11875;49.356;2.718;2023-07-20T01:52:06;4.70;;;1.90;;
23404;SDS011;11875;49.356;2.718;2023-07-20T01:54:32;3.67;;;1.67;;
23404;SDS011;11875;49.356;2.718;2023-07-20T01:56:57;2.72;;;1.83;;
23404;SDS011;11875;49.356;2.718;2023-07-20T01:59:23;3.42;;;1.63;;
23404;SDS011;11875;49.356;2.718;2023-07-20T02:01:48;4.38;;;1.90;;
23404;SDS011;11875;49.356;2.718;2023-07-20T02:04:14;5.30;;;1.65;;
23404;SDS011;11875;49.356;2.718;2023-07-20T02:06:40;6.22;;;2.13;;
23404;SDS011;11875;49.356;2.718;2023-07-20T02:09:05;5.40;;;1.95;;
23404;SDS011;11875;49.356;2.718;2023-07-20T02:11:31;5.72;;;2.00;;
23404;SDS011;11875;49.356;2.718;2023-07-20T02:13:56;3.15;;;2.10;;
23404;SDS011;11875;49.356;2.718;2023-07-20T02:16:22;7.38;;;1.70;;
23404;SDS011;11875;49.356;2.718;2023-07-20T02:18:47;5.32;;;1.90;;
23404;SDS011;11875;49.356;2.718;2023-07-20T02:21:13;4.82;;;2.13;;
23404;SDS011;11875;49.356;2.718;2023-07-20T02:23:38;5.07;;;2.20;;
23404;SDS011;11875;49.356;2.718;2023-07-20T02:26:04;5.05;;;1.90;;
23404;SDS011;11875;49.356;2.718;2023-07-20T02:28:29;7.20;;;2.13;;
23404;SDS011;11875;49.356;2.718;2023-07-20T02:30:55;3.80;;;2.15;;
23404;SDS011;11875;49.356;2.718;2023-07-20T02:33:21;4.20;;;2.00;;
23404;SDS011;11875;49.356;2.718;2023-07-20T02:35:46;3.55;;;1.90;;
23404;SDS011;11875;49.356;2.718;2023-07-20T02:38:12;3.10;;;1.90;;
23404;SDS011;11875;49.356;2.718;2023-07-20T02:40:37;6.00;;;1.77;;
23404;SDS011;11875;49.356;2.718;2023-07-20T02:43:03;5.45;;;1.70;;
23404;SDS011;11875;49.356;2.718;2023-07-20T02:45:29;2.25;;;1.60;;
23404;SDS011;11875;49.356;2.718;2023-07-20T02:47:54;2.70;;;1.60;;
23404;SDS011;11875;49.356;2.718;2023-07-20T02:50:20;4.70;;;1.90;;
23404;SDS011;11875;49.356;2.718;2023-07-20T02:52:46;3.88;;;2.00;;
23404;SDS011;11875;49.356;2.718;2023-07-20T02:55:11;5.90;;;2.05;;
23404;SDS011;11875;49.356;2.718;2023-07-20T02:57:37;3.72;;;1.73;;
23404;SDS011;11875;49.356;2.718;2023-07-20T03:00:03;4.28;;;1.65;;
23404;SDS011;11875;49.356;2.718;2023-07-20T03:02:30;3.90;;;1.92;;
23404;SDS011;11875;49.356;2.718;2023-07-20T03:04:56;6.85;;;2.10;;
23404;SDS011;11875;49.356;2.718;2023-07-20T03:07:23;5.85;;;1.92;;
23404;SDS011;11875;49.356;2.718;2023-07-20T03:09:51;4.55;;;1.70;;
23404;SDS011;11875;49.356;2.718;2023-07-20T03:12:17;4.63;;;2.28;;
23404;SDS011;11875;49.356;2.718;2023-07-20T03:14:42;2.67;;;2.03;;
23404;SDS011;11875;49.356;2.718;2023-07-20T03:17:08;4.00;;;2.08;;
23404;SDS011;11875;49.356;2.718;2023-07-20T03:19:34;8.05;;;2.05;;
23404;SDS011;11875;49.356;2.718;2023-07-20T03:21:59;4.30;;;1.98;;
23404;SDS011;11875;49.356;2.718;2023-07-20T03:24:25;7.35;;;2.30;;
23404;SDS011;11875;49.356;2.718;2023-07-20T03:26:50;4.15;;;1.98;;
23404;SDS011;11875;49.356;2.718;2023-07-20T03:29:16;3.13;;;1.88;;
23404;SDS011;11875;49.356;2.718;2023-07-20T03:31:41;6.05;;;2.10;;
23404;SDS011;11875;49.356;2.718;2023-07-20T03:34:07;3.40;;;1.85;;
23404;SDS011;11875;49.356;2.718;2023-07-20T03:36:33;13.63;;;3.33;;
23404;SDS011;11875;49.356;2.718;2023-07-20T03:38:59;4.35;;;2.08;;
23404;SDS011;11875;49.356;2.718;2023-07-20T03:41:24;4.95;;;2.42;;
23404;SDS011;11875;49.356;2.718;2023-07-20T03:43:50;6.05;;;2.22;;
23404;SDS011;11875;49.356;2.718;2023-07-20T03:46:16;4.47;;;2.13;;
23404;SDS011;11875;49.356;2.718;2023-07-20T03:48:42;3.03;;;2.30;;
23404;SDS011;11875;49.356;2.718;2023-07-20T03:51:07;5.40;;;2.25;;
23404;SDS011;11875;49.356;2.718;2023-07-20T03:53:33;2.72;;;1.98;;
23404;SDS011;11875;49.356;2.718;2023-07-20T03:55:58;4.32;;;2.00;;
23404;SDS011;11875;49.356;2.718;2023-07-20T03:58:24;5.82;;;2.42;;
23404;SDS011;11875;49.356;2.718;2023-07-20T04:00:50;5.43;;;2.60;;
23404;SDS011;11875;49.356;2.718;2023-07-20T04:03:16;2.70;;;1.92;;
23404;SDS011;11875;49.356;2.718;2023-07-20T04:05:43;3.97;;;2.33;;
23404;SDS011;11875;49.356;2.718;2023-07-20T04:08:09;8.18;;;2.10;;
23404;SDS011;11875;49.356;2.718;2023-07-20T04:10:36;5.13;;;2.83;;
23404;SDS011;11875;49.356;2.718;2023-07-20T04:13:02;2.78;;;2.17;;
23404;SDS011;11875;49.356;2.718;2023-07-20T04:15:28;8.07;;;2.70;;
23404;SDS011;11875;49.356;2.718;2023-07-20T04:17:55;6.07;;;2.72;;
23404;SDS011;11875;49.356;2.718;2023-07-20T04:20:21;4.35;;;2.65;;
23404;SDS011;11875;49.356;2.718;2023-07-20T04:22:48;4.72;;;2.50;;
23404;SDS011;11875;49.356;2.718;2023-07-20T04:25:13;3.05;;;2.13;;
23404;SDS011;11875;49.356;2.718;2023-07-20T04:27:39;10.25;;;2.55;;
23404;SDS011;11875;49.356;2.718;2023-07-20T04:30:06;5.45;;;2.17;;
23404;SDS011;11875;49.356;2.718;2023-07-20T04:32:33;4.30;;;2.50;;
23404;SDS011;11875;49.356;2.718;2023-07-20T04:34:59;5.13;;;2.45;;
23404;SDS011;11875;49.356;2.718;2023-07-20T04:37:24;5.85;;;2.67;;
23404;SDS011;11875;49.356;2.718;2023-07-20T04:39:50;5.45;;;2.53;;
23404;SDS011;11875;49.356;2.718;2023-07-20T04:42:16;4.75;;;2.40;;
23404;SDS011;11875;49.356;2.718;2023-07-20T04:44:41;3.25;;;2.20;;
23404;SDS011;11875;49.356;2.718;2023-07-20T04:47:07;7.60;;;2.40;;
23404;SDS011;11875;49.356;2.718;2023-07-20T04:49:33;11.57;;;3.15;;
23404;SDS011;11875;49.356;2.718;2023-07-20T04:51:59;2.92;;;2.25;;
23404;SDS011;11875;49.356;2.718;2023-07-20T04:54:24;4.65;;;1.98;;
23404;SDS011;11875;49.356;2.718;2023-07-20T04:56:52;4.10;;;2.50;;
23404;SDS011;11875;49.356;2.718;2023-07-20T04:59:18;15.30;;;2.30;;
23404;SDS011;11875;49.356;2.718;2023-07-20T05:01:43;6.10;;;2.45;;
23404;SDS011;11875;49.356;2.718;2023-07-20T05:04:09;7.05;;;2.92;;
23404;SDS011;11875;49.356;2.718;2023-07-20T05:06:35;6.63;;;2.90;;
23404;SDS011;11875;49.356;2.718;2023-07-20T05:09:00;9.00;;;3.80;;
23404;SDS011;11875;49.356;2.718;2023-07-20T05:11:26;6.90;;;2.88;;
23404;SDS011;11875;49.356;2.718;2023-07-20T05:13:52;7.43;;;3.83;;
23404;SDS011;11875;49.356;2.718;2023-07-20T05:16:17;5.50;;;3.58;;
23404;SDS011;11875;49.356;2.718;2023-07-20T05:18:43;7.18;;;3.40;;
23404;SDS011;11875;49.356;2.718;2023-07-20T05:21:08;5.40;;;3.53;;
23404;SDS011;11875;49.356;2.718;2023-07-20T05:23:34;7.72;;;3.03;;
23404;SDS011;11875;49.356;2.718;2023-07-20T05:25:59;7.55;;;3.30;;
23404;SDS011;11875;49.356;2.718;2023-07-20T05:28:25;11.73;;;3.08;;
23404;SDS011;11875;49.356;2.718;2023-07-20T05:30:52;6.75;;;3.45;;
23404;SDS011;11875;49.356;2.718;2023-07-20T05:33:18;7.75;;;3.40;;
23404;SDS011;11875;49.356;2.718;2023-07-20T05:35:44;7.68;;;3.88;;
23404;SDS011;11875;49.356;2.718;2023-07-20T05:38:09;10.57;;;3.78;;
23404;SDS011;11875;49.356;2.718;2023-07-20T05:40:41;7.38;;;3.75;;
23404;SDS011;11875;49.356;2.718;2023-07-20T05:43:10;12.48;;;4.43;;
23404;SDS011;11875;49.356;2.718;2023-07-20T05:45:36;10.07;;;4.70;;
23404;SDS011;11875;49.356;2.718;2023-07-20T05:48:01;10.43;;;4.43;;
23404;SDS011;11875;49.356;2.718;2023-07-20T05:50:27;13.85;;;5.15;;
23404;SDS011;11875;49.356;2.718;2023-07-20T05:52:53;11.65;;;4.05;;
23404;SDS011;11875;49.356;2.718;2023-07-20T05:55:18;14.38;;;4.82;;
23404;SDS011;11875;49.356;2.718;2023-07-20T05:57:44;11.43;;;4.25;;
23404;SDS011;11875;49.356;2.718;2023-07-20T06:00:10;8.88;;;4.47;;
23404;SDS011;11875;49.356;2.718;2023-07-20T06:02:37;7.70;;;4.78;;
23404;SDS011;11875;49.356;2.718;2023-07-20T06:05:04;10.40;;;4.97;;
23404;SDS011;11875;49.356;2.718;2023-07-20T06:07:30;12.60;;;4.85;;
23404;SDS011;11875;49.356;2.718;2023-07-20T06:09:56;12.15;;;6.80;;
23404;SDS011;11875;49.356;2.718;2023-07-20T06:12:23;17.33;;;5.35;;
23404;SDS011;11875;49.356;2.718;2023-07-20T06:14:48;8.30;;;5.30;;
23404;SDS011;11875;49.356;2.718;2023-07-20T06:17:14;11.00;;;5.60;;
23404;SDS011;11875;49.356;2.718;2023-07-20T06:19:40;8.50;;;5.38;;
23404;SDS011;11875;49.356;2.718;2023-07-20T06:22:05;10.57;;;6.00;;
23404;SDS011;11875;49.356;2.718;2023-07-20T06:24:31;12.38;;;6.20;;
23404;SDS011;11875;49.356;2.718;2023-07-20T06:26:57;19.98;;;6.65;;
23404;SDS011;11875;49.356;2.718;2023-07-20T06:29:22;12.90;;;6.97;;
23404;SDS011;11875;49.356;2.718;2023-07-20T06:31:48;10.82;;;6.43;;
23404;SDS011;11875;49.356;2.718;2023-07-20T06:34:13;15.85;;;7.65;;
23404;SDS011;11875;49.356;2.718;2023-07-20T06:36:39;10.88;;;6.68;;
23404;SDS011;11875;49.356;2.718;2023-07-20T06:39:05;13.80;;;6.63;;
23404;SDS011;11875;49.356;2.718;2023-07-20T06:41:30;11.48;;;6.55;;
23404;SDS011;11875;49.356;2.718;2023-07-20T06:43:56;13.75;;;7.00;;
23404;SDS011;11875;49.356;2.718;2023-07-20T06:46:24;13.75;;;7.13;;
23404;SDS011;11875;49.356;2.718;2023-07-20T06:48:52;15.15;;;7.30;;
23404;SDS011;11875;49.356;2.718;2023-07-20T06:51:18;14.00;;;7.15;;
23404;SDS011;11875;49.356;2.718;2023-07-20T06:53:44;12.20;;;6.95;;
23404;SDS011;11875;49.356;2.718;2023-07-20T06:56:11;15.30;;;6.55;;
23404;SDS011;11875;49.356;2.718;2023-07-20T06:58:36;11.55;;;6.03;;
23404;SDS011;11875;49.356;2.718;2023-07-20T07:01:05;11.32;;;6.65;;
23404;SDS011;11875;49.356;2.718;2023-07-20T07:03:34;12.35;;;6.95;;
23404;SDS011;11875;49.356;2.718;2023-07-20T07:06:00;12.77;;;6.30;;
23404;SDS011;11875;49.356;2.718;2023-07-20T07:08:26;10.07;;;6.72;;
23404;SDS011;11875;49.356;2.718;2023-07-20T07:10:51;11.75;;;6.65;;
23404;SDS011;11875;49.356;2.718;2023-07-20T07:13:17;10.43;;;6.72;;
23404;SDS011;11875;49.356;2.718;2023-07-20T07:15:44;14.20;;;6.38;;
23404;SDS011;11875;49.356;2.718;2023-07-20T07:18:10;9.85;;;6.18;;
23404;SDS011;11875;49.356;2.718;2023-07-20T07:20:36;17.15;;;6.88;;
23404;SDS011;11875;49.356;2.718;2023-07-20T07:23:01;11.70;;;7.07;;
23404;SDS011;11875;49.356;2.718;2023-07-20T07:25:27;12.75;;;6.57;;
23404;SDS011;11875;49.356;2.718;2023-07-20T07:27:53;11.10;;;6.40;;
23404;SDS011;11875;49.356;2.718;2023-07-20T07:30:20;12.30;;;6.22;;
23404;SDS011;11875;49.356;2.718;2023-07-20T07:32:46;13.65;;;6.28;;
23404;SDS011;11875;49.356;2.718;2023-07-20T07:35:12;11.07;;;6.78;;
23404;SDS011;11875;49.356;2.718;2023-07-20T07:37:37;9.90;;;6.07;;
23404;SDS011;11875;49.356;2.718;2023-07-20T07:40:03;11.55;;;5.75;;
23404;SDS011;11875;49.356;2.718;2023-07-20T07:42:30;16.00;;;6.65;;
23404;SDS011;11875;49.356;2.718;2023-07-20T07:44:56;9.65;;;5.95;;
23404;SDS011;11875;49.356;2.718;2023-07-20T07:47:21;10.40;;;6.45;;
23404;SDS011;11875;49.356;2.718;2023-07-20T07:49:47;14.23;;;6.47;;
23404;SDS011;11875;49.356;2.718;2023-07-20T07:52:13;8.82;;;5.95;;
23404;SDS011;11875;49.356;2.718;2023-07-20T07:54:39;12.18;;;5.70;;
23404;SDS011;11875;49.356;2.718;2023-07-20T07:57:05;10.30;;;5.30;;
23404;SDS011;11875;49.356;2.718;2023-07-20T07:59:31;10.77;;;4.95;;
23404;SDS011;11875;49.356;2.718;2023-07-20T08:02:01;17.05;;;5.05;;
23404;SDS011;11875;49.356;2.718;2023-07-20T08:04:27;9.55;;;5.13;;
23404;SDS011;11875;49.356;2.718;2023-07-20T08:06:53;8.43;;;5.82;;
23404;SDS011;11875;49.356;2.718;2023-07-20T08:09:18;11.20;;;5.03;;
23404;SDS011;11875;49.356;2.718;2023-07-20T08:11:44;15.25;;;5.93;;
23404;SDS011;11875;49.356;2.718;2023-07-20T08:14:10;8.30;;;5.38;;
23404;SDS011;11875;49.356;2.718;2023-07-20T08:16:35;11.70;;;5.47;;
23404;SDS011;11875;49.356;2.718;2023-07-20T08:19:01;8.18;;;4.50;;
23404;SDS011;11875;49.356;2.718;2023-07-20T08:21:27;21.17;;;6.90;;
23404;SDS011;11875;49.356;2.718;2023-07-20T08:23:53;11.30;;;5.25;;
23404;SDS011;11875;49.356;2.718;2023-07-20T08:26:19;9.18;;;5.22;;
23404;SDS011;11875;49.356;2.718;2023-07-20T08:28:47;10.88;;;5.78;;
23404;SDS011;11875;49.356;2.718;2023-07-20T08:31:13;11.13;;;5.53;;
23404;SDS011;11875;49.356;2.718;2023-07-20T08:33:39;12.07;;;5.85;;
23404;SDS011;11875;49.356;2.718;2023-07-20T08:36:04;10.57;;;5.75;;
23404;SDS011;11875;49.356;2.718;2023-07-20T08:38:30;9.95;;;5.57;;
23404;SDS011;11875;49.356;2.718;2023-07-20T08:40:56;11.13;;;5.63;;
23404;SDS011;11875;49.356;2.718;2023-07-20T08:43:24;8.02;;;5.90;;
23404;SDS011;11875;49.356;2.718;2023-07-20T08:45:56;9.07;;;5.78;;
23404;SDS011;11875;49.356;2.718;2023-07-20T08:48:22;11.85;;;5.35;;
23404;SDS011;11875;49.356;2.718;2023-07-20T08:50:52;12.95;;;6.05;;
23404;SDS011;11875;49.356;2.718;2023-07-20T08:53:21;11.80;;;5.90;;
23404;SDS011;11875;49.356;2.718;2023-07-20T08:55:48;12.55;;;5.90;;
23404;SDS011;11875;49.356;2.718;2023-07-20T08:58:16;14.65;;;6.45;;
23404;SDS011;11875;49.356;2.718;2023-07-20T09:00:43;13.25;;;6.32;;
23404;SDS011;11875;49.356;2.718;2023-07-20T09:03:08;19.88;;;7.40;;
23404;SDS011;11875;49.356;2.718;2023-07-20T09:05:36;10.15;;;6.18;;
23404;SDS011;11875;49.356;2.718;2023-07-20T09:08:03;9.25;;;5.53;;
23404;SDS011;11875;49.356;2.718;2023-07-20T09:10:30;11.15;;;5.97;;
23404;SDS011;11875;49.356;2.718;2023-07-20T09:12:56;10.50;;;5.63;;
23404;SDS011;11875;49.356;2.718;2023-07-20T09:15:22;7.40;;;5.72;;
23404;SDS011;11875;49.356;2.718;2023-07-20T09:17:51;19.00;;;6.07;;
23404;SDS011;11875;49.356;2.718;2023-07-20T09:20:19;9.25;;;5.43;;
23404;SDS011;11875;49.356;2.718;2023-07-20T09:22:45;10.98;;;6.43;;
23404;SDS011;11875;49.356;2.718;2023-07-20T09:25:12;12.55;;;6.93;;
23404;SDS011;11875;49.356;2.718;2023-07-20T09:27:42;17.58;;;7.30;;
23404;SDS011;11875;49.356;2.718;2023-07-20T09:30:09;11.23;;;6.78;;
23404;SDS011;11875;49.356;2.718;2023-07-20T09:32:43;15.43;;;6.90;;
23404;SDS011;11875;49.356;2.718;2023-07-20T09:35:19;18.23;;;6.30;;
23404;SDS011;11875;49.356;2.718;2023-07-20T09:38:04;11.95;;;6.70;;
23404;SDS011;11875;49.356;2.718;2023-07-20T09:40:30;9.18;;;5.75;;
23404;SDS011;11875;49.356;2.718;2023-07-20T09:43:02;10.07;;;6.57;;
23404;SDS011;11875;49.356;2.718;2023-07-20T09:45:33;12.27;;;7.05;;
23404;SDS011;11875;49.356;2.718;2023-07-20T09:48:02;10.70;;;6.60;;
23404;SDS011;11875;49.356;2.718;2023-07-20T09:50:30;12.48;;;6.60;;
23404;SDS011;11875;49.356;2.718;2023-07-20T09:52:55;21.55;;;8.15;;
23404;SDS011;11875;49.356;2.718;2023-07-20T09:55:22;10.70;;;6.78;;
23404;SDS011;11875;49.356;2.718;2023-07-20T09:57:49;10.23;;;6.10;;
23404;SDS011;11875;49.356;2.718;2023-07-20T10:00:16;17.83;;;7.10;;
23404;SDS011;11875;49.356;2.718;2023-07-20T10:02:42;9.13;;;5.85;;
23404;SDS011;11875;49.356;2.718;2023-07-20T10:05:10;17.05;;;7.38;;
23404;SDS011;11875;49.356;2.718;2023-07-20T10:07:40;16.45;;;6.15;;
23404;SDS011;11875;49.356;2.718;2023-07-20T10:10:17;8.93;;;5.53;;
23404;SDS011;11875;49.356;2.718;2023-07-20T10:12:47;10.77;;;5.38;;
23404;SDS011;11875;49.356;2.718;2023-07-20T10:17:53;10.57;;;5.45;;
23404;SDS011;11875;49.356;2.718;2023-07-20T10:20:27;8.18;;;5.15;;
23404;SDS011;11875;49.356;2.718;2023-07-20T10:22:53;11.10;;;4.90;;
23404;SDS011;11875;49.356;2.718;2023-07-20T10:25:21;6.35;;;3.85;;
23404;SDS011;11875;49.356;2.718;2023-07-20T10:27:48;3.70;;;2.35;;
23404;SDS011;11875;49.356;2.718;2023-07-20T10:30:14;5.45;;;3.20;;
23404;SDS011;11875;49.356;2.718;2023-07-20T10:32:40;5.57;;;3.00;;
23404;SDS011;11875;49.356;2.718;2023-07-20T10:35:14;11.73;;;4.57;;
23404;SDS011;11875;49.356;2.718;2023-07-20T10:37:54;6.25;;;2.90;;
23404;SDS011;11875;49.356;2.718;2023-07-20T10:40:28;5.32;;;1.50;;
23404;SDS011;11875;49.356;2.718;2023-07-20T10:43:02;4.85;;;2.90;;
23404;SDS011;11875;49.356;2.718;2023-07-20T10:48:23;1.42;;;1.30;;
23404;SDS011;11875;49.356;2.718;2023-07-20T10:51:11;2.85;;;1.58;;
23404;SDS011;11875;49.356;2.718;2023-07-20T10:53:41;3.92;;;1.73;;
23404;SDS011;11875;49.356;2.718;2023-07-20T10:58:40;4.05;;;2.00;;
23404;SDS011;11875;49.356;2.718;2023-07-20T11:01:09;6.82;;;2.22;;
23404;SDS011;11875;49.356;2.718;2023-07-20T11:03:39;6.57;;;2.20;;
23404;SDS011;11875;49.356;2.718;2023-07-20T11:08:56;10.35;;;2.60;;
23404;SDS011;11875;49.356;2.718;2023-07-20T11:11:41;4.45;;;2.03;;
23404;SDS011;11875;49.356;2.718;2023-07-20T11:14:09;3.05;;;2.05;;
23404;SDS011;11875;49.356;2.718;2023-07-20T11:16:45;2.63;;;1.80;;
23404;SDS011;11875;49.356;2.718;2023-07-20T11:19:21;2.08;;;1.40;;
23404;SDS011;11875;49.356;2.718;2023-07-20T11:21:50;1.85;;;1.50;;
23404;SDS011;11875;49.356;2.718;2023-07-20T11:24:22;3.55;;;1.58;;
23404;SDS011;11875;49.356;2.718;2023-07-20T11:29:21;4.57;;;2.08;;
23404;SDS011;11875;49.356;2.718;2023-07-20T11:31:48;2.03;;;1.42;;
23404;SDS011;11875;49.356;2.718;2023-07-20T11:34:15;3.03;;;1.52;;
23404;SDS011;11875;49.356;2.718;2023-07-20T11:36:49;1.92;;;1.50;;
23404;SDS011;11875;49.356;2.718;2023-07-20T11:39:16;4.63;;;1.60;;
23404;SDS011;11875;49.356;2.718;2023-07-20T11:41:46;7.75;;;1.80;;
23404;SDS011;11875;49.356;2.718;2023-07-20T11:44:16;4.57;;;1.73;;
23404;SDS011;11875;49.356;2.718;2023-07-20T11:46:43;2.22;;;1.50;;
23404;SDS011;11875;49.356;2.718;2023-07-20T11:49:09;2.72;;;1.42;;
23404;SDS011;11875;49.356;2.718;2023-07-20T11:51:36;3.30;;;1.58;;
23404;SDS011;11875;49.356;2.718;2023-07-20T11:54:03;4.57;;;3.00;;
23404;SDS011;11875;49.356;2.718;2023-07-20T11:56:30;4.80;;;1.70;;
23404;SDS011;11875;49.356;2.718;2023-07-20T11:58:56;3.83;;;1.90;;
23404;SDS011;11875;49.356;2.718;2023-07-20T12:01:25;2.35;;;1.55;;
23404;SDS011;11875;49.356;2.718;2023-07-20T12:03:57;2.97;;;1.70;;
23404;SDS011;11875;49.356;2.718;2023-07-20T12:06:24;1.92;;;1.73;;
23404;SDS011;11875;49.356;2.718;2023-07-20T12:08:50;7.53;;;1.90;;
23404;SDS011;11875;49.356;2.718;2023-07-20T12:13:59;2.00;;;1.80;;
23404;SDS011;11875;49.356;2.718;2023-07-20T12:16:28;3.45;;;2.00;;
23404;SDS011;11875;49.356;2.718;2023-07-20T12:21:30;2.72;;;2.20;;
23404;SDS011;11875;49.356;2.718;2023-07-20T12:23:57;4.10;;;2.17;;
23404;SDS011;11875;49.356;2.718;2023-07-20T12:26:23;2.92;;;2.10;;
23404;SDS011;11875;49.356;2.718;2023-07-20T12:28:50;4.35;;;2.22;;
23404;SDS011;11875;49.356;2.718;2023-07-20T12:31:16;5.25;;;2.10;;
23404;SDS011;11875;49.356;2.718;2023-07-20T12:33:41;4.20;;;2.30;;
23404;SDS011;11875;49.356;2.718;2023-07-20T12:36:08;3.22;;;2.08;;
23404;SDS011;11875;49.356;2.718;2023-07-20T12:38:34;3.55;;;1.90;;
23404;SDS011;11875;49.356;2.718;2023-07-20T12:41:00;3.53;;;2.20;;
23404;SDS011;11875;49.356;2.718;2023-07-20T12:43:26;4.82;;;2.03;;
23404;SDS011;11875;49.356;2.718;2023-07-20T12:45:52;2.10;;;1.80;;
23404;SDS011;11875;49.356;2.718;2023-07-20T12:48:18;3.22;;;1.98;;
23404;SDS011;11875;49.356;2.718;2023-07-20T12:50:43;5.72;;;2.17;;
23404;SDS011;11875;49.356;2.718;2023-07-20T12:53:09;9.30;;;2.25;;
23404;SDS011;11875;49.356;2.718;2023-07-20T12:55:35;2.83;;;2.10;;
23404;SDS011;11875;49.356;2.718;2023-07-20T12:58:00;5.00;;;1.80;;
23404;SDS011;11875;49.356;2.718;2023-07-20T13:00:26;2.70;;;2.03;;
23404;SDS011;11875;49.356;2.718;2023-07-20T13:02:52;3.25;;;2.15;;
23404;SDS011;11875;49.356;2.718;2023-07-20T13:05:17;5.15;;;2.10;;
23404;SDS011;11875;49.356;2.718;2023-07-20T13:07:43;5.90;;;1.98;;
23404;SDS011;11875;49.356;2.718;2023-07-20T13:10:09;4.07;;;1.83;;
23404;SDS011;11875;49.356;2.718;2023-07-20T13:12:36;4.85;;;2.25;;
23404;SDS011;11875;49.356;2.718;2023-07-20T13:15:03;9.65;;;1.60;;
23404;SDS011;11875;49.356;2.718;2023-07-20T13:17:36;8.25;;;1.85;;
23404;SDS011;11875;49.356;2.718;2023-07-20T13:20:06;4.82;;;1.77;;
23404;SDS011;11875;49.356;2.718;2023-07-20T13:22:35;5.50;;;2.05;;
23404;SDS011;11875;49.356;2.718;2023-07-20T13:25:00;3.95;;;2.38;;
23404;SDS011;11875;49.356;2.718;2023-07-20T13:27:26;17.10;;;3.03;;
23404;SDS011;11875;49.356;2.718;2023-07-20T13:29:52;5.20;;;1.90;;
23404;SDS011;11875;49.356;2.718;2023-07-20T13:32:18;7.40;;;2.13;;
23404;SDS011;11875;49.356;2.718;2023-07-20T13:34:44;12.07;;;7.95;;
23404;SDS011;11875;49.356;2.718;2023-07-20T13:37:10;3.85;;;2.03;;
23404;SDS011;11875;49.356;2.718;2023-07-20T13:39:36;2.10;;;1.50;;
23404;SDS011;11875;49.356;2.718;2023-07-20T13:42:02;7.95;;;2.22;;
23404;SDS011;11875;49.356;2.718;2023-07-20T13:44:30;1.85;;;1.60;;
23404;SDS011;11875;49.356;2.718;2023-07-20T13:46:56;4.15;;;1.58;;
23404;SDS011;11875;49.356;2.718;2023-07-20T13:49:22;2.20;;;1.50;;
23404;SDS011;11875;49.356;2.718;2023-07-20T13:51:48;2.30;;;1.60;;
23404;SDS011;11875;49.356;2.718;2023-07-20T13:54:13;4.30;;;1.60;;
23404;SDS011;11875;49.356;2.718;2023-07-20T13:56:39;4.97;;;1.77;;
23404;SDS011;11875;49.356;2.718;2023-07-20T13:59:04;2.50;;;1.60;;
23404;SDS011;11875;49.356;2.718;2023-07-20T14:01:30;7.90;;;1.70;;
23404;SDS011;11875;49.356;2.718;2023-07-20T14:03:58;2.10;;;1.77;;
23404;SDS011;11875;49.356;2.718;2023-07-20T14:06:23;2.22;;;1.50;;
23404;SDS011;11875;49.356;2.718;2023-07-20T14:08:49;2.00;;;1.50;;
23404;SDS011;11875;49.356;2.718;2023-07-20T14:11:15;1.98;;;1.60;;
23404;SDS011;11875;49.356;2.718;2023-07-20T14:13:41;2.78;;;1.48;;
23404;SDS011;11875;49.356;2.718;2023-07-20T14:16:07;2.65;;;1.75;;
23404;SDS011;11875;49.356;2.718;2023-07-20T14:18:33;2.67;;;1.70;;
23404;SDS011;11875;49.356;2.718;2023-07-20T14:20:59;1.98;;;1.30;;
23404;SDS011;11875;49.356;2.718;2023-07-20T14:23:25;2.20;;;1.40;;
23404;SDS011;11875;49.356;2.718;2023-07-20T14:25:50;3.40;;;1.90;;
23404;SDS011;11875;49.356;2.718;2023-07-20T14:28:16;4.05;;;1.70;;
23404;SDS011;11875;49.356;2.718;2023-07-20T14:30:41;2.47;;;1.25;;
23404;SDS011;11875;49.356;2.718;2023-07-20T14:33:07;3.47;;;1.50;;
23404;SDS011;11875;49.356;2.718;2023-07-20T14:35:33;3.60;;;1.70;;
23404;SDS011;11875;49.356;2.718;2023-07-20T14:37:59;3.60;;;1.70;;
23404;SDS011;11875;49.356;2.718;2023-07-20T14:40:25;2.42;;;1.45;;
23404;SDS011;11875;49.356;2.718;2023-07-20T14:42:50;1.92;;;1.50;;
23404;SDS011;11875;49.356;2.718;2023-07-20T14:45:17;2.95;;;1.38;;
23404;SDS011;11875;49.356;2.718;2023-07-20T14:47:43;3.58;;;1.42;;
23404;SDS011;11875;49.356;2.718;2023-07-20T14:50:10;1.58;;;1.30;;
23404;SDS011;11875;49.356;2.718;2023-07-20T14:52:36;3.13;;;1.65;;
23404;SDS011;11875;49.356;2.718;2023-07-20T14:55:01;7.97;;;7.20;;
23404;SDS011;11875;49.356;2.718;2023-07-20T14:57:27;2.53;;;1.52;;
23404;SDS011;11875;49.356;2.718;2023-07-20T14:59:53;9.02;;;4.28;;
23404;SDS011;11875;49.356;2.718;2023-07-20T15:02:19;3.13;;;1.27;;
23404;SDS011;11875;49.356;2.718;2023-07-20T15:04:45;3.58;;;1.40;;
23404;SDS011;11875;49.356;2.718;2023-07-20T15:07:12;7.00;;;1.63;;
23404;SDS011;11875;49.356;2.718;2023-07-20T15:09:38;2.95;;;1.90;;
23404;SDS011;11875;49.356;2.718;2023-07-20T15:12:04;2.35;;;1.42;;
23404;SDS011;11875;49.356;2.718;2023-07-20T15:14:30;5.00;;;1.30;;